createdAt,value
2019-06-10T00:01:37.588Z,66.70
2019-06-10T00:04:09.635Z,70.00
2019-06-10T00:06:41.522Z,72.90
2019-06-10T00:09:12.075Z,68.20
2019-06-10T00:11:42.588Z,68.30
2019-06-10T00:14:13.011Z,67.30
2019-06-10T00:16:43.508Z,66.80
2019-06-10T00:19:14.017Z,75.10
2019-06-10T00:21:44.505Z,70.20
2019-06-10T00:24:14.992Z,68.40
2019-06-10T00:26:45.414Z,72.30
2019-06-10T00:29:15.954Z,69.10
2019-06-10T00:31:46.404Z,69.20
2019-06-10T00:34:16.828Z,71.60
2019-06-10T00:36:47.262Z,67.30
2019-06-10T00:39:17.800Z,69.20
2019-06-10T00:41:48.270Z,69.30
2019-06-10T00:44:20.552Z,70.10
2019-06-10T00:46:51.603Z,73.70
2019-06-10T00:49:22.539Z,70.10
2019-06-10T00:51:52.960Z,72.90
2019-06-10T00:54:23.531Z,68.40
2019-06-10T00:56:53.957Z,70.40
2019-06-10T00:59:24.492Z,69.50
2019-06-10T01:01:54.903Z,68.90
2019-06-10T01:04:25.329Z,68.20
2019-06-10T01:06:55.761Z,68.20
2019-06-10T01:09:26.235Z,71.50
2019-06-10T01:11:56.726Z,68.50
2019-06-10T01:14:27.206Z,69.80
2019-06-10T01:16:57.616Z,68.90
2019-06-10T01:19:28.144Z,69.00
2019-06-10T01:21:58.624Z,68.20
2019-06-10T01:24:31.281Z,67.90
2019-06-10T01:27:01.341Z,68.20
2019-06-10T01:29:33.829Z,67.80
2019-06-10T01:32:05.158Z,67.90
2019-06-10T01:34:35.785Z,68.70
2019-06-10T01:37:06.789Z,71.50
2019-06-10T01:39:37.556Z,72.70
2019-06-10T01:42:08.242Z,70.50
2019-06-10T01:44:41.124Z,70.90
2019-06-10T01:47:11.813Z,71.00
2019-06-10T01:49:43.139Z,69.60
2019-06-10T01:52:15.149Z,69.20
2019-06-10T01:54:45.711Z,69.50
2019-06-10T01:57:17.041Z,69.20
2019-06-10T01:59:50.732Z,68.30
2019-06-10T02:02:23.972Z,68.20
2019-06-10T02:04:54.675Z,76.70
2019-06-10T02:07:25.204Z,70.80
2019-06-10T02:09:55.706Z,75.70
2019-06-10T02:12:26.162Z,71.90
2019-06-10T02:14:56.603Z,72.80
2019-06-10T02:17:27.035Z,70.80
2019-06-10T02:19:57.362Z,69.90
2019-06-10T02:22:27.815Z,72.80
2019-06-10T02:24:58.279Z,72.10
2019-06-10T02:27:28.786Z,73.30
2019-06-10T02:30:01.563Z,71.60
2019-06-10T02:32:37.071Z,71.70
2019-06-10T02:35:14.212Z,71.40
2019-06-10T02:37:38.200Z,70.90
2019-06-10T02:40:08.786Z,70.00
2019-06-10T02:42:43.669Z,73.00
2019-06-10T02:45:19.669Z,76.40
2019-06-10T02:47:47.915Z,73.50
2019-06-10T02:50:29.322Z,73.10
2019-06-10T02:52:54.423Z,73.90
2019-06-10T02:55:30.508Z,84.90
2019-06-10T02:57:56.995Z,75.80
2019-06-10T03:00:39.814Z,73.70
2019-06-10T03:02:59.667Z,74.00
2019-06-10T03:05:40.117Z,77.60
2019-06-10T03:08:03.873Z,76.20
2019-06-10T03:10:37.245Z,75.20
2019-06-10T03:13:06.834Z,74.40
2019-06-10T03:15:39.923Z,72.30
2019-06-10T03:18:10.314Z,73.00
2019-06-10T03:20:42.623Z,73.60
2019-06-10T03:23:12.896Z,72.60
2019-06-10T03:25:43.286Z,74.50
2019-06-10T03:28:13.757Z,73.50
2019-06-10T03:30:52.910Z,72.40
2019-06-10T03:33:17.706Z,76.70
2019-06-10T03:35:48.402Z,80.40
2019-06-10T03:38:20.315Z,78.40
2019-06-10T03:40:52.487Z,81.40
2019-06-10T03:43:23.785Z,76.70
2019-06-10T03:45:55.160Z,76.10
2019-06-10T03:48:26.830Z,75.00
2019-06-10T03:50:57.796Z,75.70
2019-06-10T03:53:28.577Z,74.20
2019-06-10T03:55:59.158Z,76.40
2019-06-10T03:58:29.687Z,76.10
2019-06-10T04:01:02.794Z,76.80
2019-06-10T04:03:33.788Z,78.20
2019-06-10T04:06:04.778Z,78.40
2019-06-10T04:08:35.204Z,77.00
2019-06-10T04:11:06.052Z,74.70
2019-06-10T04:13:36.584Z,75.70
2019-06-10T04:16:06.993Z,78.70
2019-06-10T04:18:37.467Z,76.80
2019-06-10T04:21:07.818Z,75.70
2019-06-10T04:23:38.215Z,75.20
2019-06-10T04:26:08.741Z,75.30
2019-06-10T04:28:39.197Z,75.50
2019-06-10T04:31:09.603Z,76.20
2019-06-10T04:33:41.959Z,79.70
2019-06-10T04:36:13.469Z,78.80
2019-06-10T04:38:44.194Z,83.90
2019-06-10T04:41:14.598Z,87.30
2019-06-10T04:43:45.062Z,89.50
2019-06-10T04:46:15.705Z,82.10
2019-06-10T04:48:46.278Z,83.10
2019-06-10T04:51:16.737Z,84.30
2019-06-10T04:53:47.182Z,81.00
2019-06-10T04:56:17.713Z,79.00
2019-06-10T04:58:48.168Z,79.60
2019-06-10T05:01:18.891Z,79.60
2019-06-10T05:03:49.643Z,80.30
2019-06-10T05:06:21.728Z,79.90
2019-06-10T05:08:53.748Z,80.80
2019-06-10T05:11:26.692Z,79.10
2019-06-10T05:13:56.613Z,81.80
2019-06-10T05:16:30.344Z,81.80
2019-06-10T05:18:59.188Z,82.90
2019-06-10T05:21:30.871Z,82.80
2019-06-10T05:24:02.900Z,81.70
2019-06-10T05:26:33.707Z,82.60
2019-06-10T05:29:04.396Z,81.70
2019-06-10T05:31:35.375Z,82.90
2019-06-10T05:34:05.970Z,81.10
2019-06-10T05:36:36.373Z,82.10
2019-06-10T05:39:07.782Z,80.80
2019-06-10T05:41:38.466Z,81.30
2019-06-10T05:44:09.048Z,87.60
2019-06-10T05:46:39.525Z,81.60
2019-06-10T05:49:12.353Z,81.20
2019-06-10T05:51:42.497Z,82.70
2019-06-10T05:54:13.070Z,82.10
2019-06-10T05:56:43.614Z,82.60
2019-06-10T05:59:14.458Z,87.40
2019-06-10T06:01:45.085Z,82.20
2019-06-10T06:04:15.584Z,81.50
2019-06-10T06:06:46.182Z,82.00
2019-06-10T06:09:16.771Z,81.40
2019-06-10T06:11:47.232Z,80.70
2019-06-10T06:14:17.730Z,81.50
2019-06-10T06:16:48.184Z,81.60
2019-06-10T06:19:18.588Z,81.60
2019-06-10T06:21:49.213Z,89.20
2019-06-10T06:24:21.945Z,81.50
2019-06-10T06:26:53.391Z,80.50
2019-06-10T06:29:23.982Z,81.60
2019-06-10T06:31:54.401Z,80.30
2019-06-10T06:34:26.745Z,79.60
2019-06-10T06:36:56.882Z,81.70
2019-06-10T06:39:27.367Z,80.40
2019-06-10T06:41:57.758Z,81.50
2019-06-10T06:44:29.562Z,82.80
2019-06-10T06:47:02.549Z,85.60
2019-06-10T06:49:32.829Z,85.30
2019-06-10T06:52:04.556Z,90.70
2019-06-10T06:54:36.148Z,83.50
2019-06-10T06:57:07.164Z,92.40
2019-06-10T06:59:39.062Z,93.10
2019-06-10T07:02:12.177Z,93.30
2019-06-10T07:04:43.294Z,88.90
2019-06-10T07:07:15.680Z,90.60
2019-06-10T07:09:49.308Z,91.10
2019-06-10T07:12:23.043Z,87.60
2019-06-10T07:14:53.722Z,85.40
2019-06-10T07:17:24.287Z,84.20
2019-06-10T07:19:57.510Z,84.40
2019-06-10T07:22:26.812Z,84.10
2019-06-10T07:24:57.306Z,84.20
2019-06-10T07:27:27.727Z,82.90
2019-06-10T07:29:58.241Z,82.50
2019-06-10T07:32:28.716Z,85.40
2019-06-10T07:34:59.176Z,83.30
2019-06-10T07:37:29.630Z,85.50
2019-06-10T07:40:00.153Z,90.50
2019-06-10T07:42:32.861Z,90.90
2019-06-10T07:45:02.752Z,90.80
2019-06-10T07:47:34.149Z,90.20
2019-06-10T07:50:05.949Z,89.10
2019-06-10T07:52:37.382Z,90.90
2019-06-10T07:55:08.262Z,87.90
2019-06-10T07:57:39.349Z,85.50
2019-06-10T08:00:12.218Z,89.00
2019-06-10T08:02:44.668Z,86.70
2019-06-10T08:05:14.936Z,85.60
2019-06-10T08:07:48.627Z,91.10
2019-06-10T08:10:18.521Z,87.10
2019-06-10T08:12:49.017Z,88.60
2019-06-10T08:15:19.432Z,87.10
2019-06-10T08:17:49.917Z,88.00
2019-06-10T08:20:54.588Z,89.00
2019-06-10T08:23:25.107Z,91.20
2019-06-10T08:25:57.774Z,91.60
2019-06-10T08:28:27.877Z,89.90
2019-06-10T08:30:58.296Z,92.50
2019-06-10T08:33:28.818Z,90.40
2019-06-10T08:36:00.568Z,92.10
2019-06-10T08:38:33.008Z,91.20
2019-06-10T08:41:03.573Z,92.40
2019-06-10T08:43:34.062Z,88.60
2019-06-10T08:46:04.722Z,88.10
2019-06-10T08:48:35.153Z,88.60
2019-06-10T08:51:05.755Z,86.80
2019-06-10T08:53:37.373Z,87.60
2019-06-10T08:56:07.989Z,88.50
2019-06-10T08:58:38.989Z,88.90
2019-06-10T09:01:13.306Z,87.00
2019-06-10T09:03:47.414Z,90.40
2019-06-10T09:06:15.005Z,89.60
2019-06-10T09:08:49.457Z,89.60
2019-06-10T09:11:20.453Z,90.50
2019-06-10T09:13:50.440Z,88.80
2019-06-10T09:16:22.914Z,88.50
2019-06-10T09:18:55.350Z,86.40
2019-06-10T09:21:25.701Z,90.40
2019-06-10T09:23:59.933Z,90.20
2019-06-10T09:26:28.299Z,88.60
2019-06-10T09:28:58.779Z,87.00
2019-06-10T09:31:29.274Z,86.60
2019-06-10T09:33:59.806Z,86.30
2019-06-10T09:36:32.392Z,85.60
2019-06-10T09:39:03.951Z,85.10
2019-06-10T09:41:40.064Z,85.90
2019-06-10T09:44:07.032Z,85.50
2019-06-10T09:46:40.259Z,85.90
2019-06-10T09:49:13.791Z,87.70
2019-06-10T09:51:48.385Z,86.50
2019-06-10T09:54:16.545Z,86.30
2019-06-10T09:56:48.818Z,85.80
2019-06-10T09:59:19.066Z,85.40
2019-06-10T10:01:55.335Z,84.70
2019-06-10T10:04:23.544Z,86.00
2019-06-10T10:06:57.126Z,86.30
2019-06-10T10:09:26.671Z,84.50
2019-06-10T10:11:57.193Z,84.70
2019-06-10T10:14:27.630Z,86.00
2019-06-10T10:17:00.241Z,85.90
2019-06-10T10:19:30.125Z,84.80
2019-06-10T10:22:02.884Z,86.70
2019-06-10T10:24:34.076Z,85.00
2019-06-10T10:27:09.034Z,84.90
2019-06-10T10:29:36.938Z,84.80
2019-06-10T10:32:07.394Z,84.90
2019-06-10T10:34:37.929Z,84.80
2019-06-10T10:37:08.466Z,85.10
2019-06-10T10:39:39.042Z,85.50
2019-06-10T10:42:12.495Z,84.90
2019-06-10T10:44:46.194Z,85.70
2019-06-10T10:47:14.000Z,85.90
2019-06-10T10:49:44.969Z,86.40
2019-06-10T10:52:18.721Z,86.60
2019-06-10T10:54:49.432Z,85.40
2019-06-10T10:57:22.592Z,86.80
2019-06-10T10:59:55.688Z,85.30
2019-06-10T11:02:24.330Z,84.60
2019-06-10T11:04:56.887Z,84.30
2019-06-10T11:07:27.009Z,83.90
2019-06-10T11:09:57.503Z,84.10
2019-06-10T11:12:29.460Z,83.50
2019-06-10T11:15:02.888Z,82.60
2019-06-10T11:17:33.650Z,81.40
2019-06-10T11:20:04.551Z,81.50
2019-06-10T11:22:35.073Z,79.40
2019-06-10T11:25:06.052Z,81.70
2019-06-10T11:27:36.595Z,81.40
2019-06-10T11:30:07.507Z,81.40
2019-06-10T11:32:38.120Z,78.90
2019-06-10T11:35:08.586Z,80.90
2019-06-10T11:37:39.033Z,81.50
2019-06-10T11:40:09.636Z,81.40
2019-06-10T11:42:43.332Z,80.70
2019-06-10T11:45:13.883Z,76.10
2019-06-10T11:47:44.328Z,79.00
2019-06-10T11:50:16.170Z,79.20
2019-06-10T11:52:47.554Z,78.80
2019-06-10T11:55:19.421Z,81.10
2019-06-10T11:57:51.012Z,80.50
2019-06-10T12:00:24.350Z,81.00
2019-06-10T12:02:58.200Z,82.00
2019-06-10T12:05:27.399Z,79.30
2019-06-10T12:08:01.187Z,71.20
2019-06-10T12:10:32.799Z,78.30
2019-06-10T12:13:07.078Z,78.00
2019-06-10T12:16:06.926Z,78.10
2019-06-10T12:18:08.793Z,75.70
2019-06-10T12:20:38.650Z,76.50
2019-06-10T12:23:09.240Z,78.50
2019-06-10T12:25:39.929Z,78.40
2019-06-10T12:28:12.727Z,78.50
2019-06-10T12:30:42.571Z,73.20
2019-06-10T12:33:21.427Z,78.10
2019-06-10T12:35:45.437Z,77.20
2019-06-10T12:38:15.940Z,77.10
2019-06-10T12:40:46.439Z,77.10
2019-06-10T12:43:16.948Z,76.70
2019-06-10T12:45:47.436Z,75.20
2019-06-10T12:48:18.071Z,72.20
2019-06-10T12:50:48.610Z,73.70
2019-06-10T12:53:19.070Z,73.20
2019-06-10T12:55:49.618Z,70.90
2019-06-10T12:58:22.410Z,72.70
2019-06-10T13:00:53.224Z,70.40
2019-06-10T13:03:24.681Z,70.80
2019-06-10T13:05:57.778Z,71.40
2019-06-10T13:08:33.053Z,71.80
2019-06-10T13:11:04.113Z,69.60
2019-06-10T13:13:34.722Z,71.40
2019-06-10T13:16:08.308Z,71.20
2019-06-10T13:18:37.484Z,70.20
2019-06-10T13:21:13.077Z,69.60
2019-06-10T13:23:40.048Z,69.20
2019-06-10T13:26:15.284Z,68.70
2019-06-10T13:28:44.055Z,68.50
2019-06-10T13:31:14.742Z,68.70
2019-06-10T13:33:45.704Z,67.60
2019-06-10T13:36:16.206Z,69.30
2019-06-10T13:38:46.613Z,66.30
2019-06-10T13:41:17.080Z,66.70
2019-06-10T13:43:47.602Z,66.50
2019-06-10T13:46:18.067Z,66.80
2019-06-10T13:48:48.590Z,66.80
2019-06-10T13:51:19.105Z,67.60
2019-06-10T13:53:49.507Z,67.40
2019-06-10T13:56:39.851Z,66.50
2019-06-10T13:58:52.318Z,67.30
2019-06-10T14:01:22.821Z,67.90
2019-06-10T14:03:53.670Z,68.60
2019-06-10T14:06:39.603Z,65.90
2019-06-10T14:08:56.617Z,66.60
2019-06-10T14:11:29.988Z,66.80
2019-06-10T14:13:59.237Z,67.80
2019-06-10T14:16:29.637Z,66.50
2019-06-10T14:19:01.435Z,65.60
2019-06-10T14:21:33.117Z,67.70
2019-06-10T14:24:04.173Z,67.30
2019-06-10T14:26:42.068Z,66.00
2019-06-10T14:29:07.541Z,66.40
2019-06-10T14:31:43.844Z,65.20
2019-06-10T14:34:13.968Z,66.80
2019-06-10T14:36:43.145Z,65.80
2019-06-10T14:39:15.889Z,66.10
2019-06-10T14:41:45.773Z,65.10
2019-06-10T14:44:17.916Z,65.10
2019-06-10T14:46:48.562Z,64.40
2019-06-10T14:49:19.121Z,64.70
2019-06-10T14:51:49.592Z,65.10
2019-06-10T14:54:22.626Z,65.20
2019-06-10T14:56:56.880Z,65.10
2019-06-10T14:59:24.270Z,65.20
2019-06-10T15:01:54.717Z,65.60
2019-06-10T15:04:25.268Z,65.50
2019-06-10T15:06:55.793Z,65.80
2019-06-10T15:09:26.261Z,65.80
2019-06-10T15:11:56.781Z,66.10
2019-06-10T15:14:27.359Z,66.50
2019-06-10T15:16:57.872Z,66.40
2019-06-10T15:19:29.087Z,66.50
2019-06-10T15:21:59.897Z,66.50
2019-06-10T15:24:30.429Z,66.60
2019-06-10T15:27:10.236Z,66.70
2019-06-10T15:29:32.983Z,66.80
2019-06-10T15:32:14.005Z,67.30
2019-06-10T15:34:35.617Z,67.20
2019-06-10T15:37:06.010Z,67.50
2019-06-10T15:39:36.489Z,67.70
2019-06-10T15:42:07.016Z,68.10
2019-06-10T15:44:48.616Z,69.00
2019-06-10T15:47:10.730Z,71.40
2019-06-10T15:49:41.740Z,69.70
2019-06-10T15:52:13.903Z,69.20
2019-06-10T15:54:44.324Z,70.00
2019-06-10T15:57:30.941Z,69.60
2019-06-10T15:59:46.945Z,71.20
2019-06-10T16:02:19.282Z,75.20
2019-06-10T16:04:49.525Z,73.40
2019-06-10T16:07:20.948Z,77.20
2019-06-10T16:09:53.359Z,76.20
2019-06-10T16:12:26.659Z,78.20
2019-06-10T16:14:56.188Z,76.40
2019-06-10T16:17:29.923Z,77.90
2019-06-10T16:19:58.852Z,76.40
2019-06-10T16:22:29.344Z,76.30
2019-06-10T16:24:59.933Z,77.70
2019-06-10T16:27:46.279Z,76.90
2019-06-10T16:30:02.905Z,77.60
2019-06-10T16:32:33.474Z,77.70
2019-06-10T16:35:04.116Z,79.80
2019-06-10T16:37:34.557Z,79.50
2019-06-10T16:40:05.585Z,75.90
2019-06-10T16:42:36.082Z,78.20
2019-06-10T16:45:08.305Z,81.00
2019-06-10T16:47:38.860Z,78.00
2019-06-10T16:50:12.215Z,84.00
2019-06-10T16:52:43.175Z,85.80
2019-06-10T16:55:13.885Z,86.30
2019-06-10T16:57:58.522Z,82.70
2019-06-10T17:00:18.322Z,84.30
2019-06-10T17:02:48.782Z,85.50
2019-06-10T17:05:20.541Z,85.00
2019-06-10T17:07:52.580Z,85.20
2019-06-10T17:10:24.342Z,89.20
2019-06-10T17:13:15.661Z,86.10
2019-06-10T17:15:46.299Z,84.70
2019-06-10T17:18:16.816Z,86.10
2019-06-10T17:20:47.355Z,82.60
2019-06-10T17:23:26.188Z,87.40
2019-06-10T17:25:55.769Z,86.80
2019-06-10T17:28:29.779Z,86.60
2019-06-10T17:30:59.206Z,86.70
2019-06-10T17:33:30.405Z,86.60
2019-06-10T17:36:03.398Z,88.70
2019-06-10T17:38:34.177Z,92.30
2019-06-10T17:41:04.671Z,91.40
2019-06-10T17:43:35.066Z,90.10
2019-06-10T17:46:05.729Z,88.50
2019-06-10T17:48:36.120Z,88.20
2019-06-10T17:51:06.605Z,90.30
2019-06-10T17:53:37.047Z,90.00
2019-06-10T17:56:07.545Z,88.50
2019-06-10T17:58:53.424Z,89.20
2019-06-10T18:01:12.751Z,92.70
2019-06-10T18:03:43.002Z,94.90
2019-06-10T18:06:13.724Z,92.20
2019-06-10T18:08:44.213Z,92.00
2019-06-10T18:11:14.914Z,94.30
2019-06-10T18:13:45.389Z,94.80
2019-06-10T18:16:15.961Z,90.60
2019-06-10T18:18:46.412Z,90.50
2019-06-10T18:21:16.874Z,90.50
2019-06-10T18:23:47.399Z,90.00
2019-06-10T18:26:17.806Z,90.60
2019-06-10T18:29:00.410Z,90.70
2019-06-10T18:31:23.105Z,90.50
2019-06-10T18:33:53.033Z,91.00
2019-06-10T18:36:24.532Z,91.30
2019-06-10T18:38:55.182Z,91.10
2019-06-10T18:41:25.654Z,92.50
2019-06-10T18:43:56.165Z,92.20
2019-06-10T18:46:27.948Z,92.20
2019-06-10T18:48:58.402Z,89.80
2019-06-10T18:51:31.278Z,94.90
2019-06-10T18:54:02.602Z,91.90
2019-06-10T18:56:35.298Z,90.00
2019-06-10T18:59:16.804Z,89.30
2019-06-10T19:01:38.681Z,88.30
2019-06-10T19:04:09.304Z,89.00
2019-06-10T19:06:39.874Z,90.50
2019-06-10T19:09:12.802Z,90.70
2019-06-10T19:11:43.519Z,90.40
2019-06-10T19:14:14.322Z,91.20
2019-06-10T19:16:44.790Z,90.90
2019-06-10T19:19:15.253Z,90.20
2019-06-10T19:22:01.504Z,90.50
2019-06-10T19:24:17.898Z,89.60
2019-06-10T19:26:48.516Z,88.80
2019-06-10T19:29:30.794Z,90.10
2019-06-10T19:31:52.659Z,90.00
2019-06-10T19:34:23.218Z,90.10
2019-06-10T19:36:53.933Z,90.60
2019-06-10T19:39:24.444Z,90.30
2019-06-10T19:41:54.990Z,90.10
2019-06-10T19:44:25.431Z,89.50
2019-06-10T19:46:55.942Z,90.40
2019-06-10T19:49:26.506Z,89.90
2019-06-10T19:51:56.896Z,89.30
2019-06-10T19:54:27.357Z,89.30
2019-06-10T19:56:57.864Z,89.20
2019-06-10T19:59:28.291Z,88.30
2019-06-10T20:01:58.778Z,88.20
2019-06-10T20:04:29.288Z,88.50
2019-06-10T20:07:02.243Z,89.90
2019-06-10T20:09:32.886Z,88.50
2019-06-10T20:12:04.123Z,89.10
2019-06-10T20:14:34.508Z,89.40
2019-06-10T20:17:05.070Z,87.60
2019-06-10T20:19:35.708Z,89.30
2019-06-10T20:22:06.306Z,90.00
2019-06-10T20:24:36.808Z,90.90
2019-06-10T20:27:07.340Z,91.30
2019-06-10T20:29:37.894Z,93.00
2019-06-10T20:32:08.308Z,91.30
2019-06-10T20:34:39.277Z,92.10
2019-06-10T20:37:09.958Z,94.90
2019-06-10T20:39:42.734Z,91.50
2019-06-10T20:42:12.958Z,90.80
2019-06-10T20:44:45.889Z,90.70
2019-06-10T20:47:15.805Z,90.40
2019-06-10T20:49:49.507Z,90.10
2019-06-10T20:52:18.427Z,90.70
2019-06-10T20:54:49.974Z,91.00
2019-06-10T20:57:22.530Z,90.30
2019-06-10T20:59:52.695Z,90.10
2019-06-10T21:02:23.642Z,91.10
2019-06-10T21:04:54.095Z,90.60
2019-06-10T21:07:24.730Z,90.10
2019-06-10T21:09:55.583Z,90.50
2019-06-10T21:12:26.264Z,90.50
2019-06-10T21:14:56.733Z,90.80
2019-06-10T21:17:27.215Z,91.00
2019-06-10T21:19:57.681Z,91.10
2019-06-10T21:22:28.149Z,90.50
2019-06-10T21:24:58.732Z,90.60
2019-06-10T21:27:29.250Z,90.80
2019-06-10T21:30:02.830Z,90.90
2019-06-10T21:32:32.630Z,91.20
2019-06-10T21:35:03.301Z,91.80
2019-06-10T21:37:33.674Z,91.00
2019-06-10T21:40:04.766Z,91.00
2019-06-10T21:42:35.259Z,90.80
2019-06-10T21:45:05.861Z,90.90
2019-06-10T21:47:36.288Z,90.40
2019-06-10T21:50:06.879Z,91.60
2019-06-10T21:52:37.286Z,91.10
2019-06-10T21:55:07.932Z,91.00
2019-06-10T21:57:38.373Z,90.90
2019-06-10T22:00:13.771Z,91.70
2019-06-10T22:02:43.208Z,90.70
2019-06-10T22:05:14.915Z,90.90
2019-06-10T22:07:45.476Z,91.10
2019-06-10T22:10:16.055Z,91.10
2019-06-10T22:12:46.468Z,90.80
2019-06-10T22:15:16.940Z,91.70
2019-06-10T22:17:48.311Z,91.80
2019-06-10T22:20:18.796Z,93.80
2019-06-10T22:22:49.090Z,91.60
2019-06-10T22:25:19.574Z,92.00
2019-06-10T22:27:50.089Z,90.90
2019-06-10T22:30:22.728Z,91.40
2019-06-10T22:32:55.026Z,90.90
2019-06-10T22:35:24.962Z,91.40
2019-06-10T22:37:56.576Z,91.50
2019-06-10T22:40:27.165Z,91.60
2019-06-10T22:42:57.635Z,90.50
2019-06-10T22:45:28.145Z,90.80
2019-06-10T22:47:58.614Z,91.20
2019-06-10T22:50:29.361Z,91.00
2019-06-10T22:52:59.993Z,90.50
2019-06-10T22:55:32.217Z,90.50
2019-06-10T22:58:06.037Z,90.80
2019-06-10T23:00:34.894Z,90.80
2019-06-10T23:03:05.506Z,91.80
2019-06-10T23:05:36.118Z,91.30
2019-06-10T23:08:06.645Z,91.50
2019-06-10T23:10:37.106Z,92.00
2019-06-10T23:13:07.650Z,92.90
2019-06-10T23:15:38.137Z,92.50
2019-06-10T23:18:08.600Z,92.10
2019-06-10T23:20:39.080Z,91.70
2019-06-10T23:23:09.560Z,92.00
2019-06-10T23:25:40.056Z,91.90
2019-06-10T23:28:12.732Z,91.20
2019-06-10T23:30:43.148Z,92.30
2019-06-10T23:33:13.742Z,91.80
2019-06-10T23:35:46.983Z,92.00
2019-06-10T23:38:16.351Z,91.80
2019-06-10T23:40:46.789Z,92.80
2019-06-10T23:43:17.150Z,91.60
2019-06-10T23:45:47.509Z,92.00
2019-06-10T23:48:17.999Z,92.10
2019-06-10T23:50:48.494Z,92.90
2019-06-10T23:53:19.080Z,92.30
2019-06-10T23:55:49.537Z,92.30
2019-06-10T23:58:22.739Z,92.10
